Time;durP1;ratioP1;P1;durP2;ratioP2;P2;SDS_P1;SDS_P2;PMS_P1;PMS_P2;Temp;Humidity;BMP_temperature;BMP_pressure;BME280_temperature;BME280_humidity;BME280_pressure;Samples;Min_cycle;Max_cycle;Signal;HPM_P1;HPM_P2
2023/08/15 00:01:02;;;;;;;35.50;33.50;;;;;;;20.47;86.46;93330.56;5061963;28;20101;-75
2023/08/15 00:03:29;;;;;;;33.08;31.38;;;;;;;20.39;85.96;93335.28;5066348;28;20052;-76
2023/08/15 00:05:56;;;;;;;31.92;30.13;;;;;;;20.16;88.71;93331.47;5064246;28;20049;-76
2023/08/15 00:08:22;;;;;;;31.33;29.63;;;;;;;19.93;90.61;93335.41;5065550;28;20090;-76
2023/08/15 00:10:50;;;;;;;30.25;28.65;;;;;;;19.73;88.66;93339.63;5066976;28;20041;-76
2023/08/15 00:13:17;;;;;;;30.65;28.95;;;;;;;19.53;86.16;93330.78;5068279;28;20094;-76
2023/08/15 00:15:44;;;;;;;35.13;33.33;;;;;;;19.31;85.64;93331.06;5061395;28;20037;-75
2023/08/15 00:18:11;;;;;;;36.97;35.17;;;;;;;19.35;85.47;93327.69;5067062;28;20422;-75
2023/08/15 00:20:37;;;;;;;37.88;35.80;;;;;;;19.42;83.80;93324.03;5064534;28;20048;-75
2023/08/15 00:23:05;;;;;;;38.33;36.25;;;;;;;19.46;84.86;93319.88;5068388;28;20106;-76
2023/08/15 00:25:32;;;;;;;35.33;33.50;;;;;;;19.49;82.29;93329.78;5065538;28;20091;-76
2023/08/15 00:28:00;;;;;;;28.90;27.25;;;;;;;19.57;81.63;93325.81;5068647;28;20045;-75
2023/08/15 00:30:26;;;;;;;35.72;33.67;;;;;;;19.59;80.97;93328.97;5064744;28;20449;-76
2023/08/15 00:32:53;;;;;;;27.13;25.48;;;;;;;19.49;80.98;93322.72;5064722;28;20098;-76
2023/08/15 00:35:20;;;;;;;32.80;31.10;;;;;;;19.51;81.00;93322.47;5062768;28;20120;-76
2023/08/15 00:37:47;;;;;;;29.95;28.33;;;;;;;19.42;80.20;93303.19;5067512;28;20119;-76
2023/08/15 00:40:13;;;;;;;32.53;30.73;;;;;;;19.41;80.75;93312.84;5068412;28;20422;-75
2023/08/15 00:42:40;;;;;;;33.95;32.25;;;;;;;19.35;81.16;93304.25;5066053;28;20048;-76
2023/08/15 00:45:09;;;;;;;31.77;29.95;;;;;;;19.37;81.25;93309.19;5065618;28;20612;-75
2023/08/15 00:47:37;;;;;;;30.15;28.48;;;;;;;19.23;81.10;93294.09;5061434;28;20832;-75
2023/08/15 00:50:06;;;;;;;32.20;30.40;;;;;;;19.11;81.64;93298.00;5066177;28;20044;-75
2023/08/15 00:52:33;;;;;;;32.30;30.58;;;;;;;19.07;81.93;93295.16;5067874;28;20051;-75
2023/08/15 00:55:00;;;;;;;36.25;34.25;;;;;;;19.11;81.35;93290.97;5065300;28;20049;-76
2023/08/15 00:57:27;;;;;;;32.70;30.88;;;;;;;19.14;81.17;93292.28;5067757;28;20090;-75
2023/08/15 00:59:54;;;;;;;34.38;32.42;;;;;;;19.13;81.26;93282.91;5066707;28;20141;-75
2023/08/15 01:02:22;;;;;;;31.90;30.23;;;;;;;19.19;80.06;93282.66;5068035;28;20048;-75
2023/08/15 01:04:50;;;;;;;35.08;33.17;;;;;;;19.20;80.12;93273.78;5062264;28;20045;-75
2023/08/15 01:07:17;;;;;;;29.33;27.80;;;;;;;19.18;80.06;93275.88;5061665;28;20595;-75
2023/08/15 01:09:44;;;;;;;33.03;31.25;;;;;;;19.27;79.29;93273.53;5064922;28;20075;-74
2023/08/15 01:12:20;;;;;;;30.10;28.30;;;;;;;19.25;79.70;93267.03;5066897;28;20044;-75
2023/08/15 01:14:52;;;;;;;37.55;35.55;;;;;;;19.26;79.36;93266.75;5064528;28;20045;-74
2023/08/15 01:17:29;;;;;;;31.63;29.95;;;;;;;19.31;79.57;93264.13;5065866;28;20052;-75
2023/08/15 01:20:02;;;;;;;33.95;32.08;;;;;;;19.22;79.81;93265.72;5065783;28;20050;-74
2023/08/15 01:22:32;;;;;;;32.15;30.45;;;;;;;19.24;80.65;93266.22;5065615;28;20553;-74
2023/08/15 01:25:00;;;;;;;36.13;34.22;;;;;;;19.14;80.82;93248.78;5067588;28;20750;-75
2023/08/15 01:27:27;;;;;;;37.70;35.72;;;;;;;19.17;81.45;93248.25;5066520;28;20052;-74
2023/08/15 01:29:53;;;;;;;32.45;30.67;;;;;;;19.27;82.12;93244.09;5065353;28;21057;-75
2023/08/15 01:32:27;;;;;;;38.00;36.05;;;;;;;19.17;82.20;93240.44;5067471;28;20149;-75
2023/08/15 01:34:58;;;;;;;38.45;36.45;;;;;;;19.09;82.77;93247.00;5065308;28;20502;-75
2023/08/15 01:37:29;;;;;;;34.83;32.92;;;;;;;19.05;82.66;93243.34;5065480;28;20496;-74
2023/08/15 01:39:57;;;;;;;35.75;33.85;;;;;;;19.08;83.20;93242.03;5065279;28;20052;-75
2023/08/15 01:42:27;;;;;;;36.08;34.28;;;;;;;18.85;84.08;93227.69;5065210;28;20044;-75
2023/08/15 01:44:55;;;;;;;39.10;36.95;;;;;;;18.67;85.18;93238.38;5067007;28;20052;-75
2023/08/15 01:47:22;;;;;;;34.92;32.83;;;;;;;18.60;84.61;93217.00;5066799;28;20526;-75
2023/08/15 01:49:48;;;;;;;47.80;45.40;;;;;;;18.80;85.69;93247.47;5063082;28;20106;-75
2023/08/15 01:52:15;;;;;;;37.58;35.67;;;;;;;18.88;85.45;93240.97;5063699;28;20126;-74
2023/08/15 01:54:42;;;;;;;34.35;32.47;;;;;;;18.95;86.24;93238.91;5067170;28;20048;-75
2023/08/15 01:57:08;;;;;;;39.45;37.30;;;;;;;18.96;86.33;93229.25;5066884;28;20110;-75
2023/08/15 01:59:37;;;;;;;41.38;39.28;;;;;;;18.93;87.59;93220.13;5063251;28;20045;-75
2023/08/15 02:02:06;;;;;;;40.17;38.08;;;;;;;19.01;88.09;93225.84;5062511;28;20045;-75
2023/08/15 02:04:33;;;;;;;34.13;32.13;;;;;;;19.03;88.38;93223.78;5059946;28;20044;-75
2023/08/15 02:07:00;;;;;;;36.05;34.15;;;;;;;18.96;86.84;93214.44;5064720;28;20036;-75
2023/08/15 02:09:27;;;;;;;41.20;39.03;;;;;;;18.95;87.17;93218.06;5066020;28;20098;-75
2023/08/15 02:11:53;;;;;;;35.95;34.08;;;;;;;19.02;88.68;93228.19;5060000;28;20037;-75
2023/08/15 02:14:20;;;;;;;38.70;36.63;;;;;;;18.78;88.03;93200.13;5066624;28;20044;-75
2023/08/15 02:16:48;;;;;;;41.03;39.00;;;;;;;18.94;87.58;93226.13;5066332;28;20037;-77
2023/08/15 02:19:15;;;;;;;38.10;36.13;;;;;;;18.88;88.03;93222.75;5063869;28;20048;-76
2023/08/15 02:21:41;;;;;;;41.47;39.38;;;;;;;18.91;89.03;93229.25;5061642;28;20060;-76
2023/08/15 02:24:08;;;;;;;43.15;40.85;;;;;;;18.82;89.60;93218.59;5064341;28;20054;-76
2023/08/15 02:26:35;;;;;;;43.60;41.50;;;;;;;18.79;88.90;93225.09;5066142;28;20048;-76
2023/08/15 02:29:02;;;;;;;39.97;37.72;;;;;;;18.82;89.85;93223.78;5056313;28;20099;-76
2023/08/15 02:31:31;;;;;;;46.13;43.83;;;;;;;18.81;89.85;93225.63;5064212;28;20063;-75
2023/08/15 02:33:59;;;;;;;38.92;36.70;;;;;;;18.77;90.58;93224.56;5066387;28;20095;-76
2023/08/15 02:36:26;;;;;;;46.72;44.10;;;;;;;18.70;91.10;93222.22;5066390;28;20056;-76
2023/08/15 02:38:52;;;;;;;53.10;50.55;;;;;;;18.65;91.62;93211.81;5063490;28;20045;-76
2023/08/15 02:41:20;;;;;;;42.53;40.17;;;;;;;18.59;90.73;93218.06;5063675;28;20055;-76
2023/08/15 02:43:46;;;;;;;56.45;53.72;;;;;;;18.54;91.63;93215.47;5061904;28;20049;-75
2023/08/15 02:46:13;;;;;;;58.85;56.05;;;;;;;18.50;91.77;93212.59;5065095;28;20049;-75
2023/08/15 02:48:40;;;;;;;62.80;59.70;;;;;;;18.48;92.40;93211.28;5066313;28;20052;-76
2023/08/15 02:51:08;;;;;;;66.13;62.92;;;;;;;18.22;92.78;93193.84;5065935;28;20098;-76
2023/08/15 02:53:36;;;;;;;50.42;47.78;;;;;;;18.38;93.65;93217.25;5063303;28;20465;-76
2023/08/15 02:56:02;;;;;;;65.18;61.88;;;;;;;18.36;93.16;93216.72;5062411;28;20044;-76
2023/08/15 02:58:29;;;;;;;66.43;63.28;;;;;;;18.29;94.49;93209.19;5066540;28;20399;-76
2023/08/15 03:00:56;;;;;;;56.47;53.65;;;;;;;18.28;93.28;93213.59;5064178;28;20056;-76
2023/08/15 03:03:22;;;;;;;67.90;64.70;;;;;;;18.25;92.96;93219.34;5064133;28;20099;-76
2023/08/15 03:05:49;;;;;;;61.28;58.13;;;;;;;18.25;93.05;93221.94;5066407;28;20048;-76
2023/08/15 03:08:17;;;;;;;49.08;46.65;;;;;;;17.99;91.42;93195.84;5064515;28;20049;-75
2023/08/15 03:10:44;;;;;;;53.22;50.53;;;;;;;18.18;91.34;93218.78;5062992;28;20051;-75
2023/08/15 03:13:11;;;;;;;56.13;53.42;;;;;;;18.14;89.72;93215.91;5059856;28;20564;-76
2023/08/15 03:15:38;;;;;;;62.13;59.15;;;;;;;18.22;89.61;93214.63;5065658;28;20048;-75
2023/08/15 03:18:05;;;;;;;49.80;47.33;;;;;;;18.25;91.33;93224.53;5057303;28;20053;-76
2023/08/15 03:20:32;;;;;;;50.03;47.55;;;;;;;18.26;91.09;93235.69;5064662;28;20403;-76
2023/08/15 03:22:58;;;;;;;57.17;54.33;;;;;;;18.25;92.03;93229.72;5064800;28;20118;-76
2023/08/15 03:25:26;;;;;;;59.85;56.75;;;;;;;18.24;92.02;93240.38;5065502;28;20048;-76
2023/08/15 03:27:54;;;;;;;69.97;66.63;;;;;;;18.19;91.45;93237.75;5064593;28;20036;-76
2023/08/15 03:30:21;;;;;;;73.13;69.47;;;;;;;18.18;92.35;93247.38;5061385;28;20048;-75
2023/08/15 03:32:47;;;;;;;77.82;74.00;;;;;;;18.19;92.57;93248.16;5065633;28;20098;-75
2023/08/15 03:35:14;;;;;;;70.78;67.05;;;;;;;18.18;92.12;93244.78;5067381;28;20094;-76
2023/08/15 03:37:41;;;;;;;48.40;45.80;;;;;;;18.18;92.78;93233.59;5067118;28;20098;-75
2023/08/15 03:40:09;;;;;;;60.08;57.05;;;;;;;18.10;93.45;93220.06;5068955;28;20053;-75
2023/08/15 03:42:37;;;;;;;68.60;65.32;;;;;;;18.02;82.48;93229.09;5061691;28;20119;-75
2023/08/15 03:45:05;;;;;;;76.10;72.57;;;;;;;18.08;90.32;93229.16;5063814;28;20053;-75
2023/08/15 03:47:32;;;;;;;73.80;70.30;;;;;;;18.09;90.12;93239.28;5065815;28;20821;-76
2023/08/15 03:49:59;;;;;;;72.82;68.95;;;;;;;18.11;90.62;93239.03;5069162;28;20102;-76
2023/08/15 03:52:26;;;;;;;48.55;46.08;;;;;;;18.10;90.52;93227.84;5063414;28;20053;-75
2023/08/15 03:54:52;;;;;;;48.28;45.70;;;;;;;18.14;89.58;93231.50;5068225;28;20052;-75
2023/08/15 03:57:19;;;;;;;47.22;44.90;;;;;;;18.23;89.15;93233.63;5068194;28;20561;-76
2023/08/15 03:59:47;;;;;;;59.00;56.28;;;;;;;18.27;88.23;93232.84;5069536;28;20093;-76
2023/08/15 04:02:14;;;;;;;49.63;47.13;;;;;;;18.31;87.25;93246.09;5069112;28;20871;-76
2023/08/15 04:04:40;;;;;;;43.20;40.97;;;;;;;18.42;87.16;93244.28;5068671;28;20530;-76
2023/08/15 04:07:07;;;;;;;41.80;39.60;;;;;;;18.47;85.68;93248.75;5064118;28;20040;-76
2023/08/15 04:09:34;;;;;;;44.05;41.78;;;;;;;18.53;86.08;93237.31;5064203;28;20044;-76
2023/08/15 04:12:01;;;;;;;35.45;33.60;;;;;;;18.60;86.31;93234.47;5064659;28;20052;-76
2023/08/15 04:14:27;;;;;;;57.08;54.20;;;;;;;18.55;86.53;93237.81;5067164;28;20048;-76
2023/08/15 04:16:55;;;;;;;53.25;50.47;;;;;;;18.56;87.16;93229.75;5066105;28;20045;-76
2023/08/15 04:19:22;;;;;;;45.95;43.72;;;;;;;18.56;85.03;93241.97;5063405;28;20453;-76
2023/08/15 04:21:49;;;;;;;53.55;50.75;;;;;;;18.63;87.67;93241.72;5063574;28;20117;-76
2023/08/15 04:24:15;;;;;;;40.03;37.88;;;;;;;18.68;87.21;93244.34;5063504;28;20098;-76
2023/08/15 04:26:42;;;;;;;52.22;49.10;;;;;;;18.80;86.34;93250.06;5063312;28;20555;-76
2023/08/15 04:29:09;;;;;;;33.80;31.88;;;;;;;18.89;85.50;93234.72;5064534;28;20117;-76
2023/08/15 04:31:35;;;;;;;35.55;33.55;;;;;;;19.00;84.73;93239.91;5062994;28;20056;-76
2023/08/15 04:34:04;;;;;;;32.75;31.00;;;;;;;19.05;79.28;93237.34;5062557;28;20048;-76
2023/08/15 04:36:31;;;;;;;28.40;26.73;;;;;;;19.11;77.11;93238.91;5063046;28;20058;-76
2023/08/15 04:38:58;;;;;;;29.27;27.75;;;;;;;19.25;77.98;93248.78;5064030;28;20089;-76
2023/08/15 04:41:25;;;;;;;28.55;26.90;;;;;;;19.25;79.79;93235.78;5063164;28;20450;-76
2023/08/15 04:43:52;;;;;;;26.08;24.38;;;;;;;19.50;81.75;93246.13;5063126;28;23204;-76
2023/08/15 04:46:19;;;;;;;31.95;30.05;;;;;;;19.58;81.13;93244.81;5062928;28;20044;-76
2023/08/15 04:48:45;;;;;;;28.13;26.42;;;;;;;19.71;82.40;93248.69;5063233;28;20048;-76
2023/08/15 04:51:13;;;;;;;29.85;28.25;;;;;;;19.56;78.85;93222.66;5063114;28;20044;-76
2023/08/15 04:53:40;;;;;;;33.38;31.52;;;;;;;19.83;79.77;93253.59;5067849;28;20774;-76
2023/08/15 04:56:07;;;;;;;28.58;26.88;;;;;;;19.89;81.03;93256.94;5065754;28;20117;-77
2023/08/15 04:58:33;;;;;;;27.25;25.52;;;;;;;19.93;79.59;93252.78;5066926;28;20109;-76
2023/08/15 05:00:59;;;;;;;27.92;26.13;;;;;;;20.03;76.50;93262.41;5064299;28;20045;-76
2023/08/15 05:03:26;;;;;;;28.73;27.20;;;;;;;19.96;70.18;93264.50;5064734;28;20094;-75
2023/08/15 05:05:53;;;;;;;26.30;24.83;;;;;;;20.09;71.91;93271.75;5065975;28;20049;-76
2023/08/15 05:08:21;;;;;;;26.52;24.88;;;;;;;20.22;74.91;93264.44;5064332;28;20468;-75
2023/08/15 05:10:48;;;;;;;28.65;27.00;;;;;;;20.34;74.47;93269.31;5064666;28;20505;-75
2023/08/15 05:13:14;;;;;;;27.00;25.38;;;;;;;20.44;74.84;93269.25;5066980;28;20137;-74
2023/08/15 05:15:41;;;;;;;26.95;25.38;;;;;;;20.59;74.57;93267.63;5065565;28;20095;-74
2023/08/15 05:18:08;;;;;;;26.90;25.30;;;;;;;20.66;73.76;93265.47;5061668;28;20098;-75
2023/08/15 05:20:35;;;;;;;25.02;23.40;;;;;;;20.74;73.10;93264.13;5063602;28;20048;-75
2023/08/15 05:23:01;;;;;;;25.52;23.90;;;;;;;20.90;73.21;93256.97;5065628;28;20444;-75
2023/08/15 05:25:30;;;;;;;24.80;23.50;;;;;;;20.99;69.66;93254.56;5065328;28;20040;-75
2023/08/15 05:27:56;;;;;;;25.60;23.95;;;;;;;20.72;71.92;93255.75;5065432;28;21029;-75
2023/08/15 05:30:24;;;;;;;23.70;22.23;;;;;;;20.81;72.49;93257.53;5064650;28;20556;-75
2023/08/15 05:32:50;;;;;;;20.05;18.85;;;;;;;20.54;71.55;93255.34;5065603;28;20049;-75
2023/08/15 05:35:17;;;;;;;25.80;24.35;;;;;;;20.59;73.21;93255.31;5065294;28;20045;-75
2023/08/15 05:37:44;;;;;;;23.27;21.50;;;;;;;20.70;73.29;93258.66;5064904;28;20044;-75
2023/08/15 05:40:11;;;;;;;25.45;23.80;;;;;;;20.76;71.31;93262.00;5062579;28;20541;-75
2023/08/15 05:42:39;;;;;;;24.70;23.30;;;;;;;20.94;71.88;93258.78;5066166;28;20048;-75
2023/08/15 05:45:07;;;;;;;26.98;25.33;;;;;;;21.04;71.71;93257.13;5063362;28;20563;-76
2023/08/15 05:47:34;;;;;;;24.38;22.90;;;;;;;21.16;70.86;93260.16;5064250;28;20098;-76
2023/08/15 05:50:00;;;;;;;24.38;22.70;;;;;;;21.05;69.48;93256.06;5060517;28;20044;-76
2023/08/15 05:52:27;;;;;;;26.63;25.05;;;;;;;21.12;70.28;93250.53;5065211;28;20052;-76
2023/08/15 05:54:55;;;;;;;23.30;22.00;;;;;;;20.91;69.23;93235.81;5064520;28;20040;-76
2023/08/15 05:57:22;;;;;;;22.75;21.45;;;;;;;20.92;69.25;93234.00;5063058;28;20109;-76
2023/08/15 05:59:50;;;;;;;25.85;24.30;;;;;;;20.79;70.34;93253.66;5062320;28;20049;-76
2023/08/15 06:02:17;;;;;;;24.58;23.17;;;;;;;20.68;71.49;93248.50;5063136;28;20532;-76
2023/08/15 06:04:43;;;;;;;24.52;23.23;;;;;;;20.58;72.16;93239.94;5064210;28;20051;-76
2023/08/15 06:07:12;;;;;;;23.38;21.88;;;;;;;20.57;73.22;93241.78;5066301;28;20121;-76
2023/08/15 06:09:39;;;;;;;25.40;23.80;;;;;;;20.56;74.07;93240.22;5062660;28;20052;-76
2023/08/15 06:12:06;;;;;;;22.52;21.13;;;;;;;20.63;75.05;93245.91;5063519;28;20935;-74
2023/08/15 06:14:34;;;;;;;24.80;23.40;;;;;;;20.75;75.17;93250.81;5059983;28;20105;-75
2023/08/15 06:17:04;;;;;;;25.70;23.98;;;;;;;20.77;75.82;93251.31;5065197;28;20432;-75
2023/08/15 06:19:30;;;;;;;24.00;22.48;;;;;;;20.86;76.63;93261.19;5063990;28;20052;-75
2023/08/15 06:21:57;;;;;;;20.73;19.52;;;;;;;20.68;77.62;93258.13;5059931;28;20056;-75
2023/08/15 06:24:24;;;;;;;21.15;19.95;;;;;;;20.62;78.22;93256.63;5065289;28;20052;-75
2023/08/15 06:26:50;;;;;;;22.10;20.90;;;;;;;20.64;78.69;93251.94;5064479;28;20490;-74
2023/08/15 06:29:17;;;;;;;23.75;22.38;;;;;;;20.69;79.52;93273.53;5062775;28;20052;-75
2023/08/15 06:31:44;;;;;;;26.25;24.60;;;;;;;20.91;79.47;93263.75;5061125;28;20044;-75
2023/08/15 06:34:12;;;;;;;25.88;24.40;;;;;;;20.89;79.55;93281.53;5059681;28;20048;-75
2023/08/15 06:36:38;;;;;;;28.10;26.60;;;;;;;20.72;80.58;93261.78;5059862;28;20093;-74
2023/08/15 06:39:05;;;;;;;24.80;23.27;;;;;;;21.04;81.03;93283.25;5058857;28;20074;-75
2023/08/15 06:41:32;;;;;;;24.40;23.10;;;;;;;20.70;82.05;93277.69;5059605;28;20091;-74
2023/08/15 06:43:59;;;;;;;24.92;23.52;;;;;;;20.67;81.41;93256.59;5061069;28;20082;-75
2023/08/15 06:46:25;;;;;;;28.60;26.92;;;;;;;21.04;81.06;93281.41;5060022;28;20048;-75
2023/08/15 06:48:52;;;;;;;23.08;21.77;;;;;;;21.08;80.74;93297.31;5059015;28;20048;-74
2023/08/15 06:51:20;;;;;;;25.63;23.77;;;;;;;21.29;81.44;93294.56;5062227;28;20053;-75
2023/08/15 06:53:49;;;;;;;23.10;21.70;;;;;;;21.59;79.42;93282.25;5061976;28;20048;-75
2023/08/15 06:56:16;;;;;;;19.40;18.30;;;;;;;21.51;78.38;93296.69;5062829;28;20407;-75
2023/08/15 06:58:43;;;;;;;23.45;22.05;;;;;;;21.68;80.24;93282.41;5061999;28;20140;-76
2023/08/15 07:01:12;;;;;;;23.25;21.95;;;;;;;22.03;78.01;93277.88;5062050;28;20049;-75
2023/08/15 07:03:38;;;;;;;20.38;19.17;;;;;;;22.17;76.97;93285.81;5062228;28;20052;-75
2023/08/15 07:06:06;;;;;;;23.00;21.70;;;;;;;22.13;76.86;93277.75;5060031;28;20137;-75
2023/08/15 07:08:34;;;;;;;24.38;22.90;;;;;;;22.22;76.53;93288.38;5063004;28;20493;-75
2023/08/15 07:11:01;;;;;;;21.80;20.58;;;;;;;22.11;77.50;93289.56;5063334;28;20099;-75
2023/08/15 07:13:28;;;;;;;22.20;21.00;;;;;;;22.26;76.82;93288.63;5068097;28;20044;-74
2023/08/15 07:15:55;;;;;;;20.85;19.55;;;;;;;21.85;78.25;93289.88;5065804;28;20460;-74
2023/08/15 07:18:23;;;;;;;24.98;23.70;;;;;;;21.83;78.82;93282.28;5065512;28;20917;-75
2023/08/15 07:20:50;;;;;;;22.48;21.17;;;;;;;22.03;79.73;93268.19;5066630;28;20044;-75
2023/08/15 07:23:17;;;;;;;23.55;22.25;;;;;;;22.10;78.33;93244.31;5062053;28;20052;-73
2023/08/15 07:25:45;;;;;;;20.30;19.10;;;;;;;22.16;77.96;93271.19;5063119;28;20049;-74
2023/08/15 07:28:11;;;;;;;22.92;21.63;;;;;;;22.09;77.40;93252.44;5063127;28;20048;-73
2023/08/15 07:30:38;;;;;;;20.95;19.83;;;;;;;22.35;78.34;93255.50;5064722;28;20051;-75
2023/08/15 07:33:06;;;;;;;22.00;20.63;;;;;;;22.77;76.09;93262.84;5069139;28;20094;-75
2023/08/15 07:35:33;;;;;;;23.95;22.45;;;;;;;22.45;77.84;93259.06;5067817;28;20044;-75
2023/08/15 07:38:03;;;;;;;24.45;22.95;;;;;;;22.49;76.74;93250.34;5064540;28;20040;-75
2023/08/15 07:40:31;;;;;;;23.08;21.77;;;;;;;22.40;76.87;93229.28;5065739;28;20139;-75
2023/08/15 07:42:59;;;;;;;23.27;21.98;;;;;;;22.90;75.85;93242.97;5067407;28;20059;-74
2023/08/15 07:45:26;;;;;;;23.38;22.08;;;;;;;22.75;76.04;93247.41;5067623;28;20040;-76
2023/08/15 07:47:54;;;;;;;22.88;21.58;;;;;;;22.54;75.81;93244.31;5068501;28;20080;-75
2023/08/15 07:50:23;;;;;;;24.40;23.00;;;;;;;22.50;76.44;93257.13;5063965;28;20044;-74
2023/08/15 07:52:50;;;;;;;24.50;22.95;;;;;;;22.50;77.06;93246.66;5067773;28;20071;-74
2023/08/15 07:55:17;;;;;;;22.95;21.67;;;;;;;22.54;77.03;93237.22;5065729;28;20121;-74
2023/08/15 07:57:44;;;;;;;24.45;23.10;;;;;;;22.63;75.88;93239.97;5065544;28;20110;-74
2023/08/15 08:00:14;;;;;;;22.77;21.27;;;;;;;22.71;76.23;93227.31;5061822;28;20124;-75
2023/08/15 08:02:41;;;;;;;23.90;22.50;;;;;;;22.88;75.87;93256.38;5065536;28;20218;-73
2023/08/15 08:05:09;;;;;;;25.38;24.02;;;;;;;22.33;77.45;93262.09;5064482;28;20102;-74
2023/08/15 08:07:36;;;;;;;22.42;21.08;;;;;;;22.63;77.53;93283.72;5063498;28;20053;-74
2023/08/15 08:10:03;;;;;;;25.05;23.67;;;;;;;22.42;77.95;93253.34;5062289;28;20072;-74
2023/08/15 08:12:30;;;;;;;24.48;23.10;;;;;;;22.35;78.45;93255.50;5062700;28;20110;-74
2023/08/15 08:14:58;;;;;;;21.70;20.30;;;;;;;22.57;77.40;93232.50;5062443;28;20049;-75
2023/08/15 08:17:26;;;;;;;24.67;22.98;;;;;;;22.87;77.00;93254.03;5064653;28;20048;-75
2023/08/15 08:19:54;;;;;;;20.00;18.33;;;;;;;22.36;77.60;93245.84;5060431;28;20122;-74
2023/08/15 08:22:20;;;;;;;21.73;20.35;;;;;;;21.94;79.52;93241.09;5064047;28;20139;-74
2023/08/15 08:24:49;;;;;;;27.17;25.67;;;;;;;21.88;79.42;93229.94;5065032;28;20127;-74
2023/08/15 08:27:16;;;;;;;25.13;23.55;;;;;;;22.20;79.37;93240.00;5061647;28;20638;-74
2023/08/15 08:29:43;;;;;;;16.02;15.00;;;;;;;22.09;77.88;93234.13;5063608;28;20663;-74
2023/08/15 08:32:09;;;;;;;18.45;17.30;;;;;;;22.39;77.08;93237.41;5062869;28;20122;-74
2023/08/15 08:34:37;;;;;;;16.98;15.98;;;;;;;22.45;77.58;93245.97;5063206;28;20052;-74
2023/08/15 08:37:05;;;;;;;18.38;17.20;;;;;;;22.04;79.33;93227.16;5064061;28;20084;-73
2023/08/15 08:39:31;;;;;;;17.08;15.82;;;;;;;22.31;80.11;93243.28;5062147;28;20044;-74
2023/08/15 08:41:58;;;;;;;20.27;18.85;;;;;;;22.25;80.29;93213.78;5063412;28;20056;-74
2023/08/15 08:44:27;;;;;;;21.65;20.25;;;;;;;22.57;79.35;93222.78;5061096;28;20084;-73
2023/08/15 08:46:54;;;;;;;17.05;15.85;;;;;;;22.80;79.57;93213.28;5062031;28;20048;-73
2023/08/15 08:49:23;;;;;;;16.63;15.40;;;;;;;22.13;80.23;93201.88;5063172;28;20060;-73
2023/08/15 08:51:52;;;;;;;15.65;14.60;;;;;;;22.39;79.82;93204.16;5060504;28;20102;-74
2023/08/15 08:54:18;;;;;;;20.38;19.02;;;;;;;22.68;79.62;93197.25;5061839;28;20559;-73
2023/08/15 08:56:47;;;;;;;18.67;17.17;;;;;;;22.60;80.16;93200.50;5061536;28;20045;-73
2023/08/15 08:59:20;;;;;;;27.10;25.52;;;;;;;22.60;78.79;93198.66;5061205;28;20056;-73
2023/08/15 09:01:47;;;;;;;21.02;19.65;;;;;;;22.46;79.28;93216.13;5060895;28;20056;-73
2023/08/15 09:04:14;;;;;;;21.92;20.55;;;;;;;22.40;80.52;93204.97;5062874;28;20048;-73
2023/08/15 09:06:41;;;;;;;19.13;17.83;;;;;;;22.44;80.87;93195.44;5059648;28;20048;-72
2023/08/15 09:09:09;;;;;;;18.02;16.83;;;;;;;22.07;82.54;93202.25;5060545;28;20611;-73
2023/08/15 09:11:37;;;;;;;21.63;20.33;;;;;;;22.14;82.95;93198.22;5061221;28;20593;-73
2023/08/15 09:14:04;;;;;;;22.52;21.23;;;;;;;22.30;82.49;93224.19;5059974;28;20072;-73
2023/08/15 09:16:31;;;;;;;24.88;23.38;;;;;;;22.41;82.14;93198.66;5062208;28;20513;-73
2023/08/15 09:19:00;;;;;;;26.55;24.73;;;;;;;22.21;82.57;93210.94;5064456;28;20091;-73
2023/08/15 09:21:27;;;;;;;23.70;22.15;;;;;;;21.97;84.04;93216.22;5060406;28;20117;-73
2023/08/15 09:23:55;;;;;;;24.50;23.00;;;;;;;22.35;82.15;93194.56;5060977;28;20134;-73
2023/08/15 09:26:25;;;;;;;25.10;23.52;;;;;;;22.45;83.08;93198.84;5062914;28;20126;-74
2023/08/15 09:28:52;;;;;;;27.45;25.85;;;;;;;22.28;83.06;93206.13;5062404;28;20054;-74
2023/08/15 09:31:19;;;;;;;27.33;25.67;;;;;;;22.32;83.63;93180.22;5059940;28;20117;-73
2023/08/15 09:33:47;;;;;;;24.77;23.38;;;;;;;22.55;82.85;93204.75;5063027;28;20097;-73
2023/08/15 09:36:14;;;;;;;27.15;25.65;;;;;;;22.51;81.96;93182.81;5062739;28;20126;-74
2023/08/15 09:38:41;;;;;;;27.77;26.08;;;;;;;22.49;83.44;93186.78;5064873;28;20040;-74
2023/08/15 09:41:11;;;;;;;26.52;25.02;;;;;;;22.30;84.37;93182.31;5066435;28;20574;-74
2023/08/15 09:43:50;;;;;;;26.05;24.45;;;;;;;22.57;84.08;93207.06;5059640;28;20128;-74
2023/08/15 09:46:17;;;;;;;26.10;24.27;;;;;;;22.54;83.39;93208.41;5065684;28;20155;-74
2023/08/15 09:48:45;;;;;;;25.77;24.17;;;;;;;22.46;83.73;93195.97;5061823;28;20470;-73
2023/08/15 09:51:14;;;;;;;28.00;26.40;;;;;;;22.57;84.07;93188.00;5061791;28;20131;-74
2023/08/15 09:53:42;;;;;;;24.92;23.42;;;;;;;22.29;83.69;93178.94;5062352;28;20118;-73
2023/08/15 09:56:09;;;;;;;26.67;25.08;;;;;;;22.27;83.17;93190.75;5061404;28;20052;-73
2023/08/15 09:58:37;;;;;;;25.65;24.13;;;;;;;22.39;83.64;93188.47;5062889;28;20070;-73
2023/08/15 10:01:07;;;;;;;25.75;24.25;;;;;;;22.25;83.38;93191.03;5062604;28;20044;-73
2023/08/15 10:03:36;;;;;;;28.20;26.70;;;;;;;22.25;83.16;93183.16;5061937;28;20136;-73
2023/08/15 10:06:04;;;;;;;26.15;24.55;;;;;;;22.09;83.46;93181.81;5062793;28;20079;-73
2023/08/15 10:08:32;;;;;;;25.17;23.67;;;;;;;22.00;84.86;93181.69;5061747;28;20410;-74
2023/08/15 10:10:59;;;;;;;25.48;24.08;;;;;;;22.08;83.76;93193.34;5061874;28;20507;-73
2023/08/15 10:13:31;;;;;;;25.00;23.50;;;;;;;21.91;84.90;93175.50;5064543;28;20562;-74
2023/08/15 10:15:59;;;;;;;24.60;22.98;;;;;;;22.02;84.88;93198.66;5061312;28;20110;-74
2023/08/15 10:18:27;;;;;;;25.13;23.65;;;;;;;22.02;85.42;93195.25;5061177;28;20075;-73
2023/08/15 10:20:56;;;;;;;24.30;22.83;;;;;;;21.74;84.77;93180.16;5061176;28;20161;-73
2023/08/15 10:23:27;;;;;;;23.17;21.77;;;;;;;21.91;84.68;93192.00;5064483;28;20082;-73
2023/08/15 10:25:54;;;;;;;25.00;23.48;;;;;;;21.65;84.66;93194.13;5060280;28;20506;-73
2023/08/15 10:28:21;;;;;;;24.38;22.75;;;;;;;21.49;86.33;93197.66;5062700;28;20048;-74
2023/08/15 10:30:50;;;;;;;26.90;25.30;;;;;;;21.69;86.01;93201.09;5064907;28;20056;-74
2023/08/15 10:33:19;;;;;;;23.15;21.80;;;;;;;21.45;86.38;93193.28;5063959;28;20160;-73
2023/08/15 10:35:51;;;;;;;25.48;23.88;;;;;;;21.45;86.80;93206.34;5065626;28;20119;-74
2023/08/15 10:38:20;;;;;;;23.02;21.63;;;;;;;21.34;87.63;93197.84;5064145;28;20045;-74
2023/08/15 10:40:47;;;;;;;35.22;33.20;;;;;;;21.04;88.28;93190.03;5065127;28;20041;-73
2023/08/15 10:43:15;;;;;;;24.67;22.95;;;;;;;21.18;88.62;93220.69;5066200;28;20044;-74
2023/08/15 10:45:45;;;;;;;24.23;22.83;;;;;;;21.15;88.64;93219.41;5072245;28;20214;-73
2023/08/15 10:48:12;;;;;;;24.67;23.27;;;;;;;21.08;88.19;93206.72;5070393;28;20048;-74
2023/08/15 10:50:45;;;;;;;23.38;21.88;;;;;;;21.22;86.43;93217.28;5066762;28;20050;-73
2023/08/15 10:53:13;;;;;;;21.88;20.48;;;;;;;21.11;88.05;93204.59;5070932;28;20143;-74
2023/08/15 10:55:40;;;;;;;21.88;20.23;;;;;;;21.06;87.71;93214.00;5070163;28;20058;-74
2023/08/15 10:58:09;;;;;;;21.17;19.70;;;;;;;21.38;86.53;93198.81;5067945;28;20485;-74
2023/08/15 11:00:37;;;;;;;22.80;21.17;;;;;;;21.25;85.88;93217.78;5072217;28;20501;-74
2023/08/15 11:03:04;;;;;;;21.75;20.35;;;;;;;20.38;86.43;93113.81;5067235;28;20104;-74
2023/08/15 11:05:31;;;;;;;22.17;20.80;;;;;;;21.30;86.15;93215.88;5071953;28;20080;-74
2023/08/15 11:08:14;;;;;;;23.20;21.80;;;;;;;21.15;85.28;93184.69;5067531;28;20076;-74
2023/08/15 11:10:45;;;;;;;23.23;21.73;;;;;;;21.40;84.46;93201.16;5067979;28;20049;-74
2023/08/15 11:13:12;;;;;;;24.30;22.75;;;;;;;21.77;82.50;93199.75;5069429;28;20088;-74
2023/08/15 11:15:39;;;;;;;20.33;18.75;;;;;;;21.90;82.41;93195.66;5070928;28;20090;-74
2023/08/15 11:18:06;;;;;;;22.35;21.05;;;;;;;21.72;82.72;93200.56;5071006;28;20049;-74